createdAt,value
2022-10-11T00:00:55.196Z,100767.64
2022-10-11T00:03:34.416Z,100771.61
2022-10-11T00:06:03.719Z,100772.93
2022-10-11T00:08:33.432Z,100769.36
2022-10-11T00:11:05.287Z,100770.73
2022-10-11T00:13:34.072Z,100770.65
2022-10-11T00:16:08.110Z,100765.42
2022-10-11T00:18:36.570Z,100761.77
2022-10-11T00:21:07.965Z,100765.13
2022-10-11T00:23:36.144Z,100765.08
2022-10-11T00:26:07.276Z,100765.14
2022-10-11T00:28:36.178Z,100764.05
2022-10-11T00:31:11.298Z,100763.46
2022-10-11T00:33:39.839Z,100764.66
2022-10-11T00:36:09.000Z,100764.45
2022-10-11T00:38:37.382Z,100763.97
2022-10-11T00:41:05.690Z,100768.39
2022-10-11T00:43:34.167Z,100769.98
2022-10-11T00:46:04.501Z,100772.79
2022-10-11T00:48:44.706Z,100769.44
2022-10-11T00:51:20.754Z,100768.50
2022-10-11T00:53:51.496Z,100766.11
2022-10-11T00:56:25.324Z,100763.16
2022-10-11T00:58:55.298Z,100764.71
2022-10-11T01:01:23.387Z,100764.84
2022-10-11T01:03:51.196Z,100762.45
2022-10-11T01:06:18.875Z,100760.89
2022-10-11T01:08:47.338Z,100762.73
2022-10-11T01:11:19.404Z,100762.14
2022-10-11T01:13:59.383Z,100759.08
2022-10-11T01:16:43.584Z,100754.18
2022-10-11T01:19:49.753Z,100757.38
2022-10-11T01:22:29.613Z,100751.99
2022-10-11T01:25:22.261Z,100749.48
2022-10-11T01:28:08.620Z,100748.61
2022-10-11T01:30:38.575Z,100746.78
2022-10-11T01:33:19.143Z,100744.13
2022-10-11T01:36:02.414Z,100740.47
2022-10-11T01:38:37.760Z,100740.09
2022-10-11T01:41:14.690Z,100737.07
2022-10-11T01:43:44.191Z,100735.42
2022-10-11T01:46:13.159Z,100729.39
2022-10-11T01:48:49.627Z,100727.12
2022-10-11T01:51:22.050Z,100727.05
2022-10-11T01:53:59.701Z,100724.16
2022-10-11T01:56:49.636Z,100727.85
2022-10-11T01:59:39.278Z,100726.18
2022-10-11T02:02:34.675Z,100723.98
2022-10-11T02:05:24.307Z,100727.84
2022-10-11T02:07:57.046Z,100731.65
2022-10-11T02:10:33.308Z,100731.82
2022-10-11T02:13:11.542Z,100734.77
2022-10-11T02:15:41.488Z,100738.75
2022-10-11T02:18:16.812Z,100736.63
2022-10-11T02:20:46.070Z,100737.05
2022-10-11T02:23:19.159Z,100737.02
2022-10-11T02:25:48.460Z,100734.82
2022-10-11T02:28:24.762Z,100733.98
2022-10-11T02:30:54.745Z,100733.34
2022-10-11T02:33:31.752Z,100731.23
2022-10-11T02:36:08.634Z,100733.32
2022-10-11T02:38:54.691Z,100731.75
2022-10-11T02:41:31.465Z,100734.30
2022-10-11T02:44:04.876Z,100736.31
2022-10-11T02:46:34.557Z,100735.01
2022-10-11T02:49:03.360Z,100736.77
2022-10-11T02:51:32.055Z,100738.15
2022-10-11T02:54:00.829Z,100737.78
2022-10-11T02:56:28.720Z,100736.39
2022-10-11T02:58:56.418Z,100734.27
2022-10-11T03:01:24.475Z,100735.13
2022-10-11T03:03:52.704Z,100735.46
2022-10-11T03:06:21.081Z,100737.30
2022-10-11T03:08:49.254Z,100739.61
2022-10-11T03:11:17.120Z,100737.89
2022-10-11T03:13:44.987Z,100737.77
2022-10-11T03:16:13.440Z,100741.11
2022-10-11T03:18:42.085Z,100742.38
2022-10-11T03:21:10.174Z,100744.40
2022-10-11T03:23:38.096Z,100742.56
2022-10-11T03:26:06.626Z,100739.13
2022-10-11T03:28:34.819Z,100732.08
2022-10-11T03:31:03.021Z,100727.89
2022-10-11T03:33:30.865Z,100726.16
2022-10-11T03:35:58.589Z,100728.10
2022-10-11T03:38:26.463Z,100726.34
2022-10-11T03:40:54.686Z,100725.33
2022-10-11T03:43:22.552Z,100727.72
2022-10-11T03:45:50.318Z,100727.17
2022-10-11T03:48:18.288Z,100730.10
2022-10-11T03:50:45.968Z,100732.13
2022-10-11T03:53:13.758Z,100733.29
2022-10-11T03:55:42.193Z,100726.95
2022-10-11T03:58:10.012Z,100725.49
2022-10-11T04:00:37.980Z,100724.85
2022-10-11T04:03:05.901Z,100723.80
2022-10-11T04:05:33.760Z,100725.55
2022-10-11T04:08:01.631Z,100723.86
2022-10-11T04:10:31.091Z,100723.60
2022-10-11T04:12:59.000Z,100725.29
2022-10-11T04:15:26.860Z,100724.98
2022-10-11T04:17:54.626Z,100724.17
2022-10-11T04:20:22.552Z,100726.08
2022-10-11T04:22:50.527Z,100728.26
2022-10-11T04:25:18.431Z,100722.01
2022-10-11T04:27:46.402Z,100722.59
2022-10-11T04:30:15.205Z,100720.77
2022-10-11T04:32:43.665Z,100717.84
2022-10-11T04:35:12.004Z,100722.81
2022-10-11T04:37:40.073Z,100725.02
2022-10-11T04:40:09.073Z,100729.41
2022-10-11T04:42:37.080Z,100731.59
2022-10-11T04:45:05.652Z,100729.77
2022-10-11T04:47:33.644Z,100731.15
2022-10-11T04:50:01.510Z,100731.11
2022-10-11T04:52:29.369Z,100733.53
2022-10-11T04:54:57.403Z,100737.52
2022-10-11T04:57:25.213Z,100735.60
2022-10-11T04:59:52.941Z,100736.50
2022-10-11T05:02:20.948Z,100733.92
2022-10-11T05:04:48.847Z,100736.27
2022-10-11T05:07:16.698Z,100734.50
2022-10-11T05:09:44.499Z,100737.72
2022-10-11T05:12:12.404Z,100740.81
2022-10-11T05:14:40.257Z,100740.81
2022-10-11T05:17:08.122Z,100739.48
2022-10-11T05:19:36.294Z,100741.45
2022-10-11T05:22:04.061Z,100741.84
2022-10-11T05:24:32.027Z,100740.28
2022-10-11T05:27:03.340Z,100742.48
2022-10-11T05:29:31.652Z,100747.71
2022-10-11T05:31:59.720Z,100749.66
2022-10-11T05:34:27.549Z,100750.40
2022-10-11T05:36:56.988Z,100754.59
2022-10-11T05:39:24.856Z,100754.73
2022-10-11T05:41:52.825Z,100758.72
2022-10-11T05:44:20.657Z,100760.64
2022-10-11T05:46:48.424Z,100764.64
2022-10-11T05:49:16.323Z,100766.52
2022-10-11T05:51:44.132Z,100772.41
2022-10-11T05:54:11.869Z,100768.11
2022-10-11T05:56:39.616Z,100771.71
2022-10-11T05:59:07.636Z,100773.27
2022-10-11T06:01:35.498Z,100774.98
2022-10-11T06:04:04.950Z,100777.63
2022-10-11T06:06:32.615Z,100777.56
2022-10-11T06:09:00.365Z,100776.53
2022-10-11T06:11:28.447Z,100783.14
2022-10-11T06:14:00.562Z,100782.83
2022-10-11T06:16:28.378Z,100782.27
2022-10-11T06:18:57.784Z,100780.61
2022-10-11T06:21:25.952Z,100783.40
2022-10-11T06:23:59.974Z,100783.91
2022-10-11T06:26:30.293Z,100786.95
2022-10-11T06:28:58.767Z,100793.02
2022-10-11T06:31:27.129Z,100793.78
2022-10-11T06:33:54.914Z,100792.77
2022-10-11T06:36:22.779Z,100794.52
2022-10-11T06:38:54.999Z,100796.74
2022-10-11T06:41:26.301Z,100795.64
2022-10-11T06:43:54.671Z,100799.20
2022-10-11T06:46:25.926Z,100794.41
2022-10-11T06:48:56.518Z,100798.79
2022-10-11T06:51:25.756Z,100800.71
2022-10-11T06:53:57.939Z,100802.17
2022-10-11T06:56:27.417Z,100803.79
2022-10-11T06:58:56.569Z,100805.91
2022-10-11T07:01:25.544Z,100806.51
2022-10-11T07:03:55.662Z,100807.29
2022-10-11T07:06:26.586Z,100809.04
2022-10-11T07:08:55.241Z,100810.34
2022-10-11T07:11:26.506Z,100809.67
2022-10-11T07:13:57.991Z,100810.23
2022-10-11T07:16:26.833Z,100807.78
2022-10-11T07:19:00.502Z,100806.95
2022-10-11T07:21:30.657Z,100811.66
2022-10-11T07:23:59.509Z,100813.70
2022-10-11T07:26:28.241Z,100813.30
2022-10-11T07:28:56.276Z,100815.98
2022-10-11T07:31:25.809Z,100819.16
2022-10-11T07:33:53.872Z,100818.42
2022-10-11T07:36:23.342Z,100816.98
2022-10-11T07:38:51.226Z,100817.61
2022-10-11T07:41:19.420Z,100818.45
2022-10-11T07:43:49.681Z,100820.95
2022-10-11T07:46:19.037Z,100822.64
2022-10-11T07:48:47.113Z,100823.34
2022-10-11T07:51:18.236Z,100822.45
2022-10-11T07:53:51.341Z,100824.37
2022-10-11T07:56:25.732Z,100824.31
2022-10-11T07:58:57.166Z,100827.77
2022-10-11T08:01:26.749Z,100827.02
2022-10-11T08:03:54.874Z,100826.73
2022-10-11T08:06:26.320Z,100828.49
2022-10-11T08:08:54.222Z,100832.71
2022-10-11T08:11:27.552Z,100830.02
2022-10-11T08:13:56.183Z,100828.56
2022-10-11T08:16:25.225Z,100831.26
2022-10-11T08:18:54.680Z,100833.09
2022-10-11T08:21:22.527Z,100832.47
2022-10-11T08:23:50.293Z,100828.45
2022-10-11T08:26:18.095Z,100825.88
2022-10-11T08:28:46.082Z,100828.02
2022-10-11T08:31:16.112Z,100829.38
2022-10-11T08:33:44.342Z,100831.46
2022-10-11T08:36:13.087Z,100834.39
2022-10-11T08:38:41.632Z,100832.89
2022-10-11T08:41:52.147Z,100830.21
2022-10-11T08:45:09.411Z,100831.86
2022-10-11T08:47:46.166Z,100832.52
2022-10-11T08:50:23.263Z,100835.46
2022-10-11T08:52:56.691Z,100835.52
2022-10-11T08:55:28.253Z,100837.73
2022-10-11T08:57:57.157Z,100840.04
2022-10-11T09:00:30.243Z,100835.34
2022-10-11T09:03:09.002Z,100835.05
2022-10-11T09:06:00.929Z,100837.30
2022-10-11T09:08:47.301Z,100837.27
2022-10-11T09:11:29.326Z,100839.30
2022-10-11T09:14:34.974Z,100841.64
2022-10-11T09:17:33.001Z,100843.59
2022-10-11T09:20:41.078Z,100843.66
2022-10-11T09:23:18.870Z,100843.98
2022-10-11T09:25:56.432Z,100841.36
2022-10-11T09:28:34.648Z,100838.98
2022-10-11T09:31:02.533Z,100832.60
2022-10-11T09:33:51.305Z,100831.39
2022-10-11T09:36:37.401Z,100834.73
2022-10-11T09:39:23.067Z,100833.22
2022-10-11T09:41:58.782Z,100829.82
2022-10-11T09:44:29.885Z,100830.34
2022-10-11T09:46:57.927Z,100828.17
2022-10-11T09:49:33.564Z,100826.86
2022-10-11T09:52:03.282Z,100827.67
2022-10-11T09:55:00.540Z,100825.20
2022-10-11T09:57:32.710Z,100821.63
2022-10-11T10:00:00.455Z,100818.09
2022-10-11T10:02:30.551Z,100820.73
2022-10-11T10:05:10.763Z,100818.82
2022-10-11T10:07:41.146Z,100815.33
2022-10-11T10:10:27.273Z,100816.22
2022-10-11T10:12:59.036Z,100813.16
2022-10-11T10:15:36.719Z,100812.01
2022-10-11T10:18:10.655Z,100808.00
2022-10-11T10:20:38.800Z,100811.55
2022-10-11T10:23:26.523Z,100811.73
2022-10-11T10:26:11.668Z,100813.52
2022-10-11T10:29:16.241Z,100809.09
2022-10-11T10:32:13.787Z,100811.73
2022-10-11T10:35:16.784Z,100810.11
2022-10-11T10:37:56.298Z,100808.39
2022-10-11T10:40:45.272Z,100807.56
2022-10-11T10:43:15.685Z,100807.95
2022-10-11T10:46:05.549Z,100805.77
2022-10-11T10:49:28.291Z,100806.20
2022-10-11T10:52:06.040Z,100808.73
2022-10-11T10:55:02.788Z,100807.33
2022-10-11T10:57:43.791Z,100803.63
2022-10-11T11:00:21.707Z,100802.94
2022-10-11T11:03:00.268Z,100800.34
2022-10-11T11:06:03.427Z,100800.42
2022-10-11T11:09:03.617Z,100798.77
2022-10-11T11:11:42.902Z,100797.27
2022-10-11T11:14:13.755Z,100797.25
2022-10-11T11:17:14.188Z,100796.09
2022-10-11T11:19:51.062Z,100791.89
2022-10-11T11:22:23.661Z,100791.96
2022-10-11T11:25:03.700Z,100793.11
2022-10-11T11:27:53.474Z,100792.45
2022-10-11T11:31:03.594Z,100789.79
2022-10-11T11:33:37.801Z,100788.63
2022-10-11T11:36:12.281Z,100785.95
2022-10-11T11:38:57.045Z,100783.44
2022-10-11T11:41:30.824Z,100781.03
2022-10-11T11:44:33.047Z,100779.17
2022-10-11T11:47:06.642Z,100781.11
2022-10-11T11:49:36.541Z,100778.46
2022-10-11T11:52:07.895Z,100774.30
2022-10-11T11:55:01.495Z,100773.27
2022-10-11T11:57:37.369Z,100772.70
2022-10-11T12:00:11.835Z,100771.32
2022-10-11T12:03:03.538Z,100773.30
2022-10-11T12:05:35.385Z,100768.98
2022-10-11T12:08:24.260Z,100766.63
2022-10-11T12:11:01.365Z,100763.47
2022-10-11T12:13:36.552Z,100762.17
2022-10-11T12:16:04.399Z,100758.18
2022-10-11T12:18:37.197Z,100758.13
2022-10-11T12:21:28.326Z,100757.48
2022-10-11T12:23:59.815Z,100756.75
2022-10-11T12:26:27.482Z,100753.76
2022-10-11T12:29:18.243Z,100757.52
2022-10-11T12:31:47.626Z,100757.15
2022-10-11T12:34:33.576Z,100758.23
2022-10-11T12:37:22.368Z,100757.69
2022-10-11T12:39:55.938Z,100754.45
2022-10-11T12:42:36.051Z,100752.06
2022-10-11T12:45:13.224Z,100751.16
2022-10-11T12:48:07.307Z,100750.15
2022-10-11T12:51:03.073Z,100749.48
2022-10-11T12:54:27.403Z,100746.15
2022-10-11T12:57:12.108Z,100746.23
2022-10-11T12:59:45.184Z,100742.70
2022-10-11T13:02:42.508Z,100737.26
2022-10-11T13:05:28.821Z,100740.05
2022-10-11T13:07:59.211Z,100737.89
2022-10-11T13:10:42.605Z,100740.47
2022-10-11T13:13:22.113Z,100737.84
2022-10-11T13:15:53.162Z,100734.85
2022-10-11T13:18:23.878Z,100736.73
2022-10-11T13:20:52.010Z,100740.52
2022-10-11T13:23:29.458Z,100739.16
2022-10-11T13:25:57.229Z,100739.00
2022-10-11T13:28:25.224Z,100735.98
2022-10-11T13:30:56.162Z,100732.95
2022-10-11T13:33:34.010Z,100735.21
2022-10-11T13:36:05.509Z,100736.61
2022-10-11T13:38:36.418Z,100732.24
2022-10-11T13:41:06.230Z,100733.09
2022-10-11T13:43:35.218Z,100730.80
2022-10-11T13:46:06.989Z,100732.53
2022-10-11T13:48:40.818Z,100734.48
2022-10-11T13:51:32.691Z,100732.08
2022-10-11T13:54:10.538Z,100733.27
2022-10-11T13:56:48.048Z,100732.94
2022-10-11T13:59:25.054Z,100728.50
2022-10-11T14:02:01.828Z,100729.14
2022-10-11T14:04:41.019Z,100731.02
2022-10-11T14:07:26.705Z,100733.64
2022-10-11T14:09:55.852Z,100732.42
2022-10-11T14:12:32.853Z,100729.11
2022-10-11T14:15:04.198Z,100727.67
2022-10-11T14:17:45.584Z,100728.27
2022-10-11T14:20:22.073Z,100727.23
2022-10-11T14:22:52.371Z,100726.78
2022-10-11T14:25:21.876Z,100726.08
2022-10-11T14:27:51.176Z,100723.48
2022-10-11T14:30:26.632Z,100722.61
2022-10-11T14:32:59.518Z,100725.22
2022-10-11T14:35:31.937Z,100724.18
2022-10-11T14:38:00.662Z,100721.27
2022-10-11T14:40:31.193Z,100719.92
2022-10-11T14:42:59.033Z,100721.41
2022-10-11T14:45:28.047Z,100723.95
2022-10-11T14:47:56.490Z,100724.17
2022-10-11T14:50:47.039Z,100726.95
2022-10-11T14:53:15.544Z,100728.51
2022-10-11T14:55:44.228Z,100733.10
2022-10-11T14:58:14.678Z,100735.73
2022-10-11T15:00:42.588Z,100735.80
2022-10-11T15:03:10.417Z,100739.05
2022-10-11T15:05:38.425Z,100744.09
2022-10-11T15:08:07.202Z,100747.52
2022-10-11T15:10:38.105Z,100747.70
2022-10-11T15:13:07.163Z,100746.47
2022-10-11T15:15:37.657Z,100746.36
2022-10-11T15:18:07.335Z,100747.73
2022-10-11T15:20:38.536Z,100748.90
2022-10-11T15:23:09.515Z,100754.20
2022-10-11T15:25:39.144Z,100757.08
2022-10-11T15:28:08.363Z,100756.27
2022-10-11T15:30:41.462Z,100758.80
2022-10-11T15:33:09.627Z,100757.95
2022-10-11T15:35:37.427Z,100760.73
2022-10-11T15:38:05.360Z,100763.34
2022-10-11T15:40:35.783Z,100763.88
2022-10-11T15:43:04.782Z,100768.52
2022-10-11T15:45:32.815Z,100770.60
2022-10-11T15:48:00.716Z,100769.80
2022-10-11T15:50:34.694Z,100767.20
2022-10-11T15:53:15.428Z,100771.45
2022-10-11T15:55:47.105Z,100774.84
2022-10-11T15:58:24.234Z,100773.71
2022-10-11T16:00:55.839Z,100779.64
2022-10-11T16:03:27.088Z,100779.20
2022-10-11T16:06:01.085Z,100778.92
2022-10-11T16:08:32.386Z,100779.76
2022-10-11T16:11:00.493Z,100777.11
2022-10-11T16:13:28.312Z,100777.98
2022-10-11T16:15:56.240Z,100777.63
2022-10-11T16:18:24.042Z,100779.91
2022-10-11T16:20:52.642Z,100780.30
2022-10-11T16:23:22.010Z,100779.08
2022-10-11T16:25:58.305Z,100782.89
2022-10-11T16:28:27.523Z,100787.01
2022-10-11T16:30:56.050Z,100787.51
2022-10-11T16:33:24.673Z,100788.98
2022-10-11T16:35:53.014Z,100792.12
2022-10-11T16:38:21.574Z,100796.48
2022-10-11T16:40:49.392Z,100794.36
2022-10-11T16:43:17.048Z,100800.11
2022-10-11T16:45:44.945Z,100807.83
2022-10-11T16:48:12.653Z,100802.92
2022-10-11T16:50:40.653Z,100799.95
2022-10-11T16:53:08.516Z,100806.11
2022-10-11T16:55:39.808Z,100802.33
2022-10-11T16:58:09.880Z,100803.27
2022-10-11T17:00:37.906Z,100803.84
2022-10-11T17:03:05.919Z,100805.39
2022-10-11T17:05:36.958Z,100807.82
2022-10-11T17:08:04.830Z,100809.25
2022-10-11T17:10:39.764Z,100807.23
2022-10-11T17:13:07.632Z,100810.98
2022-10-11T17:15:36.283Z,100810.49
2022-10-11T17:18:04.178Z,100811.05
2022-10-11T17:20:32.969Z,100809.16
2022-10-11T17:23:00.830Z,100811.45
2022-10-11T17:25:28.697Z,100813.16
2022-10-11T17:28:00.864Z,100811.40
2022-10-11T17:30:29.462Z,100814.22
2022-10-11T17:32:57.212Z,100817.90
2022-10-11T17:35:24.943Z,100816.90
2022-10-11T17:37:52.840Z,100822.52
2022-10-11T17:40:20.611Z,100823.95
2022-10-11T17:42:48.573Z,100825.77
2022-10-11T17:45:16.543Z,100825.47
2022-10-11T17:47:44.308Z,100825.81
2022-10-11T17:50:12.067Z,100825.64
2022-10-11T17:52:39.810Z,100822.58
2022-10-11T17:55:08.042Z,100818.46
2022-10-11T17:57:35.976Z,100816.71
2022-10-11T18:00:05.687Z,100818.30
2022-10-11T18:02:34.472Z,100816.23
2022-10-11T18:05:04.384Z,100815.51
2022-10-11T18:07:32.699Z,100816.11
2022-10-11T18:10:00.748Z,100820.53
2022-10-11T18:12:28.804Z,100820.60
2022-10-11T18:14:56.668Z,100819.11
2022-10-11T18:17:24.534Z,100820.90
2022-10-11T18:19:52.298Z,100820.89
2022-10-11T18:22:21.489Z,100827.66
2022-10-11T18:24:49.464Z,100827.73
2022-10-11T18:27:17.434Z,100825.89
2022-10-11T18:29:45.298Z,100826.52
2022-10-11T18:32:13.363Z,100830.02
2022-10-11T18:34:41.336Z,100829.21
2022-10-11T18:37:09.162Z,100831.77
2022-10-11T18:39:36.890Z,100832.98
2022-10-11T18:42:05.091Z,100833.94
2022-10-11T18:44:32.947Z,100836.34
2022-10-11T18:47:01.441Z,100834.80
2022-10-11T18:49:29.487Z,100841.48
2022-10-11T18:51:57.357Z,100836.85
2022-10-11T18:54:25.082Z,100840.67
2022-10-11T18:56:52.867Z,100841.00
2022-10-11T18:59:21.125Z,100843.39
2022-10-11T19:01:52.506Z,100841.44
2022-10-11T19:04:21.113Z,100839.33
2022-10-11T19:06:49.650Z,100841.35
2022-10-11T19:09:22.316Z,100841.98
2022-10-11T19:11:52.305Z,100839.52
2022-10-11T19:14:23.169Z,100842.86
2022-10-11T19:16:51.671Z,100842.70
2022-10-11T19:19:26.033Z,100843.56
2022-10-11T19:21:54.507Z,100843.36
2022-10-11T19:24:24.675Z,100846.59
2022-10-11T19:27:08.031Z,100846.98
2022-10-11T19:29:41.189Z,100847.91
2022-10-11T19:32:09.156Z,100850.92
2022-10-11T19:34:37.228Z,100846.82
2022-10-11T19:37:05.988Z,100848.12
2022-10-11T19:39:33.873Z,100847.41
2022-10-11T19:42:01.791Z,100850.48
2022-10-11T19:44:29.922Z,100848.88
2022-10-11T19:47:02.768Z,100851.52
2022-10-11T19:49:33.456Z,100852.95
2022-10-11T19:52:01.713Z,100850.20
2022-10-11T19:54:29.889Z,100852.23
2022-10-11T19:56:57.697Z,100854.48
2022-10-11T19:59:26.927Z,100853.67
2022-10-11T20:01:54.785Z,100854.81
2022-10-11T20:04:50.556Z,100857.45
2022-10-11T20:07:11.044Z,100857.55
2022-10-11T20:09:39.153Z,100857.98
2022-10-11T20:12:07.437Z,100856.14
2022-10-11T20:14:35.341Z,100857.02
2022-10-11T20:17:03.310Z,100860.75
2022-10-11T20:19:31.713Z,100861.83
2022-10-11T20:22:01.094Z,100861.20
2022-10-11T20:24:33.512Z,100862.23
2022-10-11T20:27:06.662Z,100860.45
2022-10-11T20:29:35.235Z,100859.17
2022-10-11T20:32:03.104Z,100853.53
2022-10-11T20:34:31.241Z,100854.44
2022-10-11T20:36:59.327Z,100853.28
2022-10-11T20:39:27.148Z,100852.63
2022-10-11T20:41:54.987Z,100853.20
2022-10-11T20:44:22.945Z,100854.31
2022-10-11T20:46:50.713Z,100852.70
2022-10-11T20:49:20.114Z,100855.18
2022-10-11T20:51:49.105Z,100853.93
2022-10-11T20:54:17.074Z,100856.61
2022-10-11T20:56:45.248Z,100855.51
2022-10-11T20:59:13.067Z,100856.57
2022-10-11T21:01:42.013Z,100850.48
2022-10-11T21:04:17.567Z,100850.73
2022-10-11T21:06:46.236Z,100850.38
2022-10-11T21:09:16.530Z,100852.73
2022-10-11T21:11:45.247Z,100856.36
2022-10-11T21:14:13.452Z,100853.67
2022-10-11T21:16:41.975Z,100855.59
2022-10-11T21:19:13.259Z,100854.13
2022-10-11T21:21:41.190Z,100852.13
2022-10-11T21:24:09.286Z,100850.81
2022-10-11T21:26:37.354Z,100856.95
2022-10-11T21:29:05.320Z,100859.19
2022-10-11T21:31:34.569Z,100856.63
2022-10-11T21:34:05.269Z,100854.80
2022-10-11T21:36:33.573Z,100854.13
2022-10-11T21:39:01.802Z,100856.55
2022-10-11T21:41:30.250Z,100860.52
2022-10-11T21:43:58.545Z,100860.02
2022-10-11T21:49:17.038Z,100859.35
2022-10-11T21:51:45.218Z,100858.45
2022-10-11T21:54:12.969Z,100856.16
2022-10-11T21:56:41.037Z,100861.04
2022-10-11T21:59:12.165Z,100861.61
2022-10-11T22:01:41.942Z,100860.22
2022-10-11T22:04:11.111Z,100863.09
2022-10-11T22:06:40.040Z,100861.99
2022-10-11T22:09:08.861Z,100860.52
2022-10-11T22:11:37.798Z,100857.08
2022-10-11T22:14:06.548Z,100858.83
2022-10-11T22:16:35.431Z,100860.63
2022-10-11T22:19:04.324Z,100858.35
2022-10-11T22:21:32.150Z,100855.39
2022-10-11T22:24:00.114Z,100852.20
2022-10-11T22:26:30.898Z,100849.51
2022-10-11T22:29:00.428Z,100848.77
2022-10-11T22:31:29.591Z,100849.31
2022-10-11T22:33:59.765Z,100847.31
2022-10-11T22:36:30.433Z,100849.90
2022-10-11T22:38:59.036Z,100848.88
2022-10-11T22:41:27.006Z,100849.60
2022-10-11T22:43:54.828Z,100848.04
2022-10-11T22:46:22.932Z,100850.54
2022-10-11T22:48:50.774Z,100852.59
2022-10-11T22:51:18.848Z,100850.45
2022-10-11T22:53:46.738Z,100854.38
2022-10-11T22:56:14.704Z,100855.77
2022-10-11T22:58:42.393Z,100857.63
2022-10-11T23:01:12.764Z,100856.23
2022-10-11T23:03:40.676Z,100860.63
2022-10-11T23:06:08.939Z,100859.05
2022-10-11T23:08:37.006Z,100855.77
2022-10-11T23:11:06.598Z,100855.81
2022-10-11T23:13:35.294Z,100853.66
2022-10-11T23:16:11.639Z,100852.13
2022-10-11T23:18:39.885Z,100853.17
2022-10-11T23:21:08.537Z,100854.88
2022-10-11T23:23:36.367Z,100855.14
2022-10-11T23:26:09.298Z,100854.53
2022-10-11T23:28:37.550Z,100857.10
2022-10-11T23:31:23.470Z,100858.37
2022-10-11T23:33:53.447Z,100860.27
2022-10-11T23:36:24.726Z,100862.48
2022-10-11T23:38:57.700Z,100862.59
2022-10-11T23:41:28.908Z,100866.86
2022-10-11T23:43:58.739Z,100869.98
2022-10-11T23:46:26.482Z,100869.65
2022-10-11T23:48:54.471Z,100871.86
2022-10-11T23:51:22.314Z,100876.44
2022-10-11T23:53:50.304Z,100874.82
2022-10-11T23:56:18.273Z,100874.14
2022-10-11T23:58:46.239Z,100868.86
